createdAt,value
2022-09-25T00:01:01.760Z,17.65
2022-09-25T00:03:29.733Z,14.63
2022-09-25T00:06:13.027Z,17.33
2022-09-25T00:08:40.206Z,18.50
2022-09-25T00:11:10.287Z,18.88
2022-09-25T00:13:37.800Z,19.65
2022-09-25T00:16:04.975Z,16.90
2022-09-25T00:18:50.929Z,16.85
2022-09-25T00:21:18.031Z,18.48
2022-09-25T00:23:46.975Z,18.48
2022-09-25T00:26:15.981Z,18.40
2022-09-25T00:28:43.321Z,17.52
2022-09-25T00:31:10.991Z,15.95
2022-09-25T00:33:37.999Z,14.85
2022-09-25T00:36:10.136Z,15.75
2022-09-25T00:38:38.205Z,14.52
2022-09-25T00:41:07.323Z,12.50
2022-09-25T00:43:37.624Z,13.18
2022-09-25T00:46:10.989Z,10.65
2022-09-25T00:48:42.472Z,13.85
2022-09-25T00:51:09.197Z,15.07
2022-09-25T00:53:40.870Z,13.70
2022-09-25T00:56:11.007Z,14.15
2022-09-25T00:58:40.461Z,14.02
2022-09-25T01:01:09.086Z,15.88
2022-09-25T01:03:36.842Z,17.90
2022-09-25T01:06:04.148Z,18.98
2022-09-25T01:08:31.879Z,19.33
2022-09-25T01:10:58.660Z,20.98
2022-09-25T01:13:26.344Z,19.95
2022-09-25T01:16:02.687Z,20.63
2022-09-25T01:19:16.606Z,21.52
2022-09-25T01:21:54.401Z,20.85
2022-09-25T01:25:15.697Z,20.00
2022-09-25T01:27:50.795Z,21.10
2022-09-25T01:30:19.784Z,22.45
2022-09-25T01:33:18.429Z,22.20
2022-09-25T01:35:59.679Z,17.95
2022-09-25T01:38:34.480Z,21.15
2022-09-25T01:41:26.776Z,17.92
2022-09-25T01:44:02.662Z,17.70
2022-09-25T01:46:35.070Z,17.02
2022-09-25T01:49:17.112Z,15.75
2022-09-25T01:52:06.137Z,16.58
2022-09-25T01:54:47.600Z,16.27
2022-09-25T01:57:24.964Z,15.38
2022-09-25T02:00:09.188Z,13.15
2022-09-25T02:02:46.976Z,18.33
2022-09-25T02:05:20.533Z,14.10
2022-09-25T02:07:55.427Z,17.55
2022-09-25T02:10:27.139Z,17.48
2022-09-25T02:12:58.289Z,16.60
2022-09-25T02:15:35.223Z,14.95
2022-09-25T02:18:30.130Z,16.48
2022-09-25T02:21:13.535Z,15.40
2022-09-25T02:23:52.800Z,17.42
2022-09-25T02:26:27.901Z,12.55
2022-09-25T02:28:56.100Z,17.67
2022-09-25T02:31:54.503Z,17.20
2022-09-25T02:34:22.240Z,14.77
2022-09-25T02:36:49.363Z,15.60
2022-09-25T02:39:19.023Z,16.10
2022-09-25T02:42:12.662Z,19.48
2022-09-25T02:44:42.940Z,19.58
2022-09-25T02:47:43.657Z,19.42
2022-09-25T02:50:27.457Z,18.23
2022-09-25T02:53:03.533Z,16.10
2022-09-25T02:55:40.698Z,17.67
2022-09-25T02:58:13.582Z,16.13
2022-09-25T03:00:43.844Z,16.65
2022-09-25T03:03:14.027Z,15.30
2022-09-25T03:05:42.191Z,15.93
2022-09-25T03:08:28.301Z,14.82
2022-09-25T03:10:55.193Z,14.52
2022-09-25T03:13:26.610Z,17.20
2022-09-25T03:16:00.693Z,15.23
2022-09-25T03:18:28.501Z,16.08
2022-09-25T03:20:55.353Z,15.98
2022-09-25T03:23:22.114Z,15.77
2022-09-25T03:25:50.365Z,17.08
2022-09-25T03:28:18.097Z,16.05
2022-09-25T03:30:54.832Z,15.48
2022-09-25T03:33:21.599Z,16.83
2022-09-25T03:35:48.321Z,16.33
2022-09-25T03:38:15.083Z,17.90
2022-09-25T03:40:42.027Z,15.45
2022-09-25T03:45:34.750Z,16.15
2022-09-25T03:48:01.727Z,18.30
2022-09-25T03:50:28.467Z,18.63
2022-09-25T03:52:55.222Z,16.15
2022-09-25T03:55:22.532Z,14.10
2022-09-25T03:57:50.327Z,14.93
2022-09-25T04:00:17.939Z,14.90
2022-09-25T04:02:44.819Z,14.65
2022-09-25T04:05:12.066Z,15.40
2022-09-25T04:07:38.798Z,13.07
2022-09-25T04:10:05.921Z,15.05
2022-09-25T04:12:32.855Z,14.27
2022-09-25T04:14:59.623Z,15.18
2022-09-25T04:17:26.555Z,14.02
2022-09-25T04:19:53.270Z,14.10
2022-09-25T04:22:20.020Z,12.77
2022-09-25T04:24:49.892Z,13.43
2022-09-25T04:27:19.175Z,12.52
2022-09-25T04:29:46.650Z,12.95
2022-09-25T04:32:32.678Z,11.60
2022-09-25T04:34:59.433Z,11.55
2022-09-25T04:37:26.502Z,12.00
2022-09-25T04:39:57.525Z,12.95
2022-09-25T04:42:24.734Z,13.38
2022-09-25T04:44:56.443Z,12.63
2022-09-25T04:47:25.199Z,12.48
2022-09-25T04:49:52.713Z,13.27
2022-09-25T04:52:20.311Z,12.60
2022-09-25T04:54:47.805Z,15.07
2022-09-25T04:57:27.596Z,15.77
2022-09-25T04:59:59.666Z,26.15
2022-09-25T05:02:28.107Z,27.00
2022-09-25T05:04:55.037Z,20.40
2022-09-25T05:07:21.892Z,17.48
2022-09-25T05:09:48.662Z,15.13
2022-09-25T05:12:15.807Z,18.67
2022-09-25T05:14:42.985Z,13.30
2022-09-25T05:17:11.360Z,12.23
2022-09-25T05:19:38.964Z,12.90
2022-09-25T05:22:05.794Z,12.05
2022-09-25T05:24:32.517Z,12.77
2022-09-25T05:27:00.067Z,12.50
2022-09-25T05:29:26.958Z,13.15
2022-09-25T05:31:53.758Z,13.73
2022-09-25T05:34:21.027Z,13.45
2022-09-25T05:36:47.820Z,12.70
2022-09-25T05:39:14.893Z,14.30
2022-09-25T05:41:41.740Z,14.90
2022-09-25T05:44:09.876Z,14.00
2022-09-25T05:46:36.970Z,14.93
2022-09-25T05:49:04.762Z,15.48
2022-09-25T05:51:32.494Z,15.10
2022-09-25T05:54:02.673Z,14.02
2022-09-25T05:56:29.477Z,13.90
2022-09-25T05:58:58.577Z,14.85
2022-09-25T06:01:26.124Z,14.20
2022-09-25T06:03:53.066Z,14.25
2022-09-25T06:06:23.810Z,16.27
2022-09-25T06:08:54.667Z,14.02
2022-09-25T06:11:22.317Z,14.57
2022-09-25T06:13:54.234Z,13.07
2022-09-25T06:16:21.587Z,11.50
2022-09-25T06:18:48.713Z,12.00
2022-09-25T06:21:15.499Z,11.77
2022-09-25T06:23:44.880Z,12.60
2022-09-25T06:26:12.549Z,13.18
2022-09-25T06:28:39.550Z,13.02
2022-09-25T06:31:06.548Z,10.88
2022-09-25T06:33:33.740Z,11.82
2022-09-25T06:36:00.920Z,13.32
2022-09-25T06:38:27.903Z,16.55
2022-09-25T06:40:59.308Z,13.75
2022-09-25T06:43:27.196Z,12.68
2022-09-25T06:45:54.130Z,12.00
2022-09-25T06:48:22.139Z,11.27
2022-09-25T06:50:55.163Z,20.50
2022-09-25T06:53:23.736Z,18.13
2022-09-25T06:55:51.579Z,16.23
2022-09-25T06:58:21.425Z,16.92
2022-09-25T07:00:53.657Z,17.70
2022-09-25T07:03:39.255Z,19.30
2022-09-25T07:06:08.593Z,10.90
2022-09-25T07:08:35.480Z,10.57
2022-09-25T07:11:02.722Z,9.68
2022-09-25T07:13:31.890Z,10.30
2022-09-25T07:16:00.903Z,9.90
2022-09-25T07:18:29.376Z,9.73
2022-09-25T07:21:05.182Z,8.95
2022-09-25T07:23:33.584Z,9.48
2022-09-25T07:26:23.967Z,9.48
2022-09-25T07:28:55.487Z,9.57
2022-09-25T07:31:25.775Z,10.48
2022-09-25T07:33:53.023Z,12.55
2022-09-25T07:36:20.819Z,13.65
2022-09-25T07:38:51.639Z,12.52
2022-09-25T07:41:19.825Z,13.23
2022-09-25T07:43:46.636Z,10.85
2022-09-25T07:46:13.636Z,12.88
2022-09-25T07:48:40.555Z,12.38
2022-09-25T07:51:11.272Z,11.38
2022-09-25T07:53:39.540Z,11.93
2022-09-25T07:56:07.299Z,13.32
2022-09-25T07:58:37.833Z,14.73
2022-09-25T08:01:07.083Z,13.15
2022-09-25T08:03:34.284Z,12.30
2022-09-25T08:06:05.320Z,13.35
2022-09-25T08:08:34.268Z,30.42
2022-09-25T08:11:09.316Z,29.58
2022-09-25T08:13:38.166Z,29.80
2022-09-25T08:16:07.007Z,27.30
2022-09-25T08:18:33.823Z,23.80
2022-09-25T08:21:02.859Z,17.52
2022-09-25T08:23:29.935Z,11.25
2022-09-25T08:25:56.994Z,7.85
2022-09-25T08:28:23.781Z,6.82
2022-09-25T08:30:50.637Z,6.80
2022-09-25T08:33:17.782Z,7.00
2022-09-25T08:35:54.059Z,6.78
2022-09-25T08:38:20.764Z,7.80
2022-09-25T08:41:02.152Z,7.85
2022-09-25T08:43:30.577Z,7.68
2022-09-25T08:46:19.243Z,6.95
2022-09-25T08:49:03.271Z,7.28
2022-09-25T08:51:40.838Z,8.55
2022-09-25T08:54:12.908Z,7.90
2022-09-25T08:56:40.273Z,8.52
2022-09-25T08:59:28.617Z,6.70
2022-09-25T09:02:03.896Z,8.98
2022-09-25T09:04:36.112Z,10.23
2022-09-25T09:07:26.254Z,6.82
2022-09-25T09:10:18.949Z,7.35
2022-09-25T09:12:50.824Z,6.65
2022-09-25T09:16:05.214Z,9.32
2022-09-25T09:18:37.755Z,6.90
2022-09-25T09:21:11.667Z,6.63
2022-09-25T09:23:58.141Z,7.47
2022-09-25T09:26:34.884Z,6.78
2022-09-25T09:29:26.090Z,5.40
2022-09-25T09:32:01.528Z,4.05
2022-09-25T09:35:01.165Z,4.80
2022-09-25T09:37:31.534Z,4.55
2022-09-25T09:40:17.303Z,5.15
2022-09-25T09:43:08.799Z,4.10
2022-09-25T09:46:06.226Z,4.07
2022-09-25T09:48:45.653Z,4.00
2022-09-25T09:51:21.232Z,4.10
2022-09-25T09:53:55.354Z,3.25
2022-09-25T09:56:33.020Z,3.42
2022-09-25T09:59:09.191Z,4.13
2022-09-25T10:01:41.764Z,4.05
2022-09-25T10:04:19.463Z,5.00
2022-09-25T10:07:04.159Z,4.57
2022-09-25T10:09:30.893Z,3.78
2022-09-25T10:12:21.887Z,3.75
2022-09-25T10:14:48.807Z,3.70
2022-09-25T10:17:17.037Z,4.03
2022-09-25T10:20:12.622Z,3.83
2022-09-25T10:22:42.615Z,3.85
2022-09-25T10:25:09.552Z,3.83
2022-09-25T10:27:46.122Z,3.47
2022-09-25T10:30:23.533Z,3.67
2022-09-25T10:33:15.363Z,4.18
2022-09-25T10:35:45.506Z,3.40
2022-09-25T10:38:31.730Z,3.42
2022-09-25T10:41:12.327Z,3.30
2022-09-25T10:44:02.531Z,4.15
2022-09-25T10:46:55.582Z,4.75
2022-09-25T10:49:43.086Z,4.53
2022-09-25T10:52:21.765Z,4.35
2022-09-25T10:54:48.609Z,5.90
2022-09-25T10:57:35.334Z,6.00
2022-09-25T11:00:04.909Z,7.18
2022-09-25T11:02:46.318Z,7.40
2022-09-25T11:05:30.370Z,7.20
2022-09-25T11:08:01.382Z,6.13
2022-09-25T11:10:37.592Z,7.30
2022-09-25T11:13:24.394Z,6.20
2022-09-25T11:15:53.845Z,5.90
2022-09-25T11:18:45.530Z,5.85
2022-09-25T11:21:25.962Z,5.70
2022-09-25T11:24:14.924Z,5.90
2022-09-25T11:27:07.327Z,6.40
2022-09-25T11:30:09.457Z,6.03
2022-09-25T11:33:06.248Z,5.85
2022-09-25T11:35:51.011Z,5.32
2022-09-25T11:39:01.311Z,5.47
2022-09-25T11:41:32.939Z,5.85
2022-09-25T11:44:18.810Z,5.05
2022-09-25T11:46:50.471Z,6.05
2022-09-25T11:49:22.498Z,6.13
2022-09-25T11:52:32.641Z,5.53
2022-09-25T11:55:17.257Z,5.65
2022-09-25T11:58:05.965Z,6.15
2022-09-25T12:01:03.769Z,5.97
2022-09-25T12:03:35.822Z,6.00
2022-09-25T12:06:05.536Z,6.57
2022-09-25T12:09:18.455Z,7.10
2022-09-25T12:12:13.811Z,5.32
2022-09-25T12:14:46.839Z,5.43
2022-09-25T12:17:17.753Z,6.05
2022-09-25T12:19:52.067Z,6.20
2022-09-25T12:22:45.042Z,6.00
2022-09-25T12:25:37.536Z,5.57
2022-09-25T12:28:30.474Z,6.00
2022-09-25T12:31:12.303Z,6.10
2022-09-25T12:33:57.684Z,5.72
2022-09-25T12:36:38.425Z,5.95
2022-09-25T12:39:40.423Z,5.20
2022-09-25T12:42:18.929Z,6.00
2022-09-25T12:44:59.746Z,6.07
2022-09-25T12:47:47.113Z,5.85
2022-09-25T12:50:17.320Z,6.28
2022-09-25T12:52:47.663Z,5.78
2022-09-25T12:55:28.564Z,6.28
2022-09-25T12:58:32.022Z,6.60
2022-09-25T13:01:11.610Z,5.28
2022-09-25T13:03:58.251Z,5.03
2022-09-25T13:06:42.545Z,4.75
2022-09-25T13:09:25.081Z,5.10
2022-09-25T13:12:12.078Z,5.15
2022-09-25T13:14:44.535Z,4.75
2022-09-25T13:17:12.721Z,4.57
2022-09-25T13:19:39.574Z,4.70
2022-09-25T13:22:10.349Z,4.30
2022-09-25T13:24:44.888Z,4.50
2022-09-25T13:27:18.962Z,4.03
2022-09-25T13:29:57.262Z,4.10
2022-09-25T13:32:28.998Z,4.50
2022-09-25T13:35:00.561Z,4.18
2022-09-25T13:37:31.893Z,4.30
2022-09-25T13:40:18.932Z,5.10
2022-09-25T13:42:47.683Z,3.70
2022-09-25T13:45:32.992Z,4.20
2022-09-25T13:48:07.766Z,4.68
2022-09-25T13:50:40.842Z,4.95
2022-09-25T13:53:16.869Z,5.57
2022-09-25T13:56:03.586Z,4.63
2022-09-25T13:58:51.695Z,4.90
2022-09-25T14:01:42.310Z,5.22
2022-09-25T14:04:15.401Z,5.00
2022-09-25T14:06:44.967Z,4.95
2022-09-25T14:09:20.769Z,4.70
2022-09-25T14:12:05.363Z,5.47
2022-09-25T14:14:55.145Z,5.32
2022-09-25T14:17:24.742Z,5.00
2022-09-25T14:19:54.820Z,5.30
2022-09-25T14:22:44.577Z,5.32
2022-09-25T14:25:36.304Z,4.75
2022-09-25T14:28:25.883Z,5.25
2022-09-25T14:31:19.312Z,4.70
2022-09-25T14:34:01.269Z,4.55
2022-09-25T14:36:28.022Z,5.28
2022-09-25T14:39:05.472Z,4.85
2022-09-25T14:41:39.556Z,4.65
2022-09-25T14:45:09.531Z,5.18
2022-09-25T14:47:44.686Z,4.57
2022-09-25T14:50:28.186Z,4.90
2022-09-25T14:52:59.974Z,4.20
2022-09-25T14:55:36.808Z,4.55
2022-09-25T14:58:09.160Z,4.57
2022-09-25T15:00:43.823Z,4.60
2022-09-25T15:03:14.279Z,4.45
2022-09-25T15:05:50.622Z,3.85
2022-09-25T15:08:23.945Z,3.72
2022-09-25T15:11:14.947Z,4.10
2022-09-25T15:13:42.563Z,3.78
2022-09-25T15:16:46.456Z,3.78
2022-09-25T15:19:28.231Z,4.28
2022-09-25T15:21:55.409Z,4.68
2022-09-25T15:24:30.664Z,4.40
2022-09-25T15:27:03.739Z,4.07
2022-09-25T15:29:37.063Z,4.97
2022-09-25T15:32:05.786Z,4.53
2022-09-25T15:34:33.458Z,4.05
2022-09-25T15:37:25.842Z,4.50
2022-09-25T15:39:53.593Z,4.20
2022-09-25T15:42:20.515Z,4.55
2022-09-25T15:44:48.740Z,4.95
2022-09-25T15:47:37.179Z,4.65
2022-09-25T15:50:06.259Z,5.40
2022-09-25T15:52:34.049Z,5.78
2022-09-25T15:55:11.091Z,5.57
2022-09-25T15:57:37.922Z,5.10
2022-09-25T16:00:39.027Z,5.00
2022-09-25T16:03:32.732Z,4.75
2022-09-25T16:06:03.902Z,4.97
2022-09-25T16:08:33.629Z,4.85
2022-09-25T16:11:22.705Z,5.00
2022-09-25T16:13:52.274Z,5.70
2022-09-25T16:16:29.831Z,5.53
2022-09-25T16:18:59.008Z,5.40
2022-09-25T16:21:34.737Z,4.63
2022-09-25T16:24:03.630Z,4.95
2022-09-25T16:26:42.165Z,4.68
2022-09-25T16:29:12.131Z,5.13
2022-09-25T16:31:43.785Z,4.90
2022-09-25T16:34:38.235Z,5.50
2022-09-25T16:37:08.478Z,5.10
2022-09-25T16:39:39.562Z,5.65
2022-09-25T16:42:26.754Z,5.88
2022-09-25T16:45:14.871Z,5.45
2022-09-25T16:47:46.821Z,6.63
2022-09-25T16:50:16.360Z,6.82
2022-09-25T16:52:43.882Z,7.18
2022-09-25T16:55:24.525Z,7.90
2022-09-25T16:57:53.006Z,6.78
2022-09-25T17:00:29.808Z,7.03
2022-09-25T17:02:57.044Z,7.20
2022-09-25T17:05:28.932Z,7.43
2022-09-25T17:08:00.108Z,7.63
2022-09-25T17:10:29.345Z,7.60
2022-09-25T17:12:59.958Z,9.05
2022-09-25T17:15:35.199Z,7.80
2022-09-25T17:18:03.302Z,7.85
2022-09-25T17:20:35.570Z,8.05
2022-09-25T17:23:02.398Z,8.93
2022-09-25T17:25:48.120Z,8.95
2022-09-25T17:28:15.421Z,7.75
2022-09-25T17:30:43.618Z,8.23
2022-09-25T17:33:15.431Z,7.43
2022-09-25T17:36:05.234Z,6.15
2022-09-25T17:38:33.816Z,7.00
2022-09-25T17:41:05.632Z,6.78
2022-09-25T17:43:33.179Z,6.63
2022-09-25T17:46:01.110Z,7.75
2022-09-25T17:48:31.890Z,6.78
2022-09-25T17:51:00.909Z,4.72
2022-09-25T17:53:30.702Z,4.70
2022-09-25T17:55:59.830Z,5.15
2022-09-25T17:58:28.270Z,6.72
2022-09-25T18:00:56.734Z,6.97
2022-09-25T18:03:23.744Z,5.30
2022-09-25T18:05:50.557Z,5.53
2022-09-25T18:08:18.609Z,5.53
2022-09-25T18:10:45.962Z,5.10
2022-09-25T18:13:15.474Z,5.75
2022-09-25T18:15:48.460Z,5.65
2022-09-25T18:18:15.937Z,5.07
2022-09-25T18:21:05.687Z,5.00
2022-09-25T18:23:35.823Z,5.45
2022-09-25T18:26:04.482Z,5.25
2022-09-25T18:28:31.353Z,3.75
2022-09-25T18:30:59.050Z,3.83
2022-09-25T18:33:26.573Z,3.60
2022-09-25T18:35:53.442Z,3.75
2022-09-25T18:38:20.190Z,3.78
2022-09-25T18:40:47.066Z,4.45
2022-09-25T18:43:13.905Z,4.28
2022-09-25T18:45:44.978Z,3.65
2022-09-25T18:48:11.768Z,3.80
2022-09-25T18:50:38.761Z,4.30
2022-09-25T18:53:05.492Z,3.88
2022-09-25T18:55:33.285Z,4.35
2022-09-25T18:58:01.283Z,5.25
2022-09-25T19:00:28.231Z,4.93
2022-09-25T19:02:55.117Z,5.05
2022-09-25T19:05:22.362Z,4.32
2022-09-25T19:07:49.264Z,4.25
2022-09-25T19:10:16.041Z,4.45
2022-09-25T19:12:44.062Z,3.97
2022-09-25T19:15:11.099Z,3.95
2022-09-25T19:17:41.262Z,3.83
2022-09-25T19:20:08.967Z,3.67
2022-09-25T19:22:36.408Z,4.47
2022-09-25T19:25:06.391Z,4.82
2022-09-25T19:27:33.224Z,5.47
2022-09-25T19:30:00.003Z,4.95
2022-09-25T19:32:26.902Z,5.68
2022-09-25T19:34:54.475Z,4.78
2022-09-25T19:37:24.067Z,5.55
2022-09-25T19:40:09.482Z,5.13
2022-09-25T19:42:37.411Z,5.30
2022-09-25T19:45:04.634Z,5.45
2022-09-25T19:47:32.072Z,5.60
2022-09-25T19:49:59.108Z,5.95
2022-09-25T19:52:25.978Z,6.20
2022-09-25T19:54:52.727Z,6.72
2022-09-25T19:57:19.624Z,6.57
2022-09-25T19:59:46.366Z,6.65
2022-09-25T20:02:13.781Z,6.35
2022-09-25T20:04:40.675Z,6.82
2022-09-25T20:07:07.599Z,7.15
2022-09-25T20:09:39.611Z,7.25
2022-09-25T20:12:06.782Z,7.28
2022-09-25T20:14:33.547Z,7.40
2022-09-25T20:17:01.100Z,7.65
2022-09-25T20:19:28.635Z,6.70
2022-09-25T20:21:55.980Z,7.05
2022-09-25T20:24:23.815Z,6.25
2022-09-25T20:26:50.600Z,6.45
2022-09-25T20:29:19.688Z,6.05
2022-09-25T20:31:47.073Z,7.43
2022-09-25T20:34:19.757Z,6.55
2022-09-25T20:36:47.480Z,7.07
2022-09-25T20:39:20.615Z,6.32
2022-09-25T20:41:49.451Z,6.38
2022-09-25T20:44:16.374Z,6.10
2022-09-25T20:46:43.320Z,5.60
2022-09-25T20:49:11.147Z,5.20
2022-09-25T20:51:38.374Z,6.05
2022-09-25T20:54:07.528Z,5.20
2022-09-25T20:56:36.414Z,4.85
2022-09-25T20:59:04.462Z,5.25
2022-09-25T21:01:37.125Z,4.82
2022-09-25T21:04:07.877Z,4.57
2022-09-25T21:06:38.429Z,4.47
2022-09-25T21:09:08.212Z,5.15
2022-09-25T21:11:35.413Z,4.85
2022-09-25T21:14:02.926Z,5.03
2022-09-25T21:16:32.612Z,4.80
2022-09-25T21:19:04.135Z,4.57
2022-09-25T21:21:32.272Z,4.00
2022-09-25T21:23:59.455Z,4.78
2022-09-25T21:26:28.534Z,4.15
2022-09-25T21:28:58.073Z,3.63
2022-09-25T21:31:28.118Z,4.45
2022-09-25T21:33:56.694Z,4.38
2022-09-25T21:36:24.288Z,4.32
2022-09-25T21:38:51.642Z,4.25
2022-09-25T21:41:21.050Z,4.80
2022-09-25T21:43:48.404Z,5.22
2022-09-25T21:46:18.239Z,5.15
2022-09-25T21:49:19.603Z,4.70
2022-09-25T21:51:47.483Z,5.22
2022-09-25T21:54:15.480Z,5.13
2022-09-25T21:56:44.294Z,5.38
2022-09-25T21:59:11.743Z,5.22
2022-09-25T22:01:40.089Z,4.85
2022-09-25T22:04:10.244Z,5.50
2022-09-25T22:06:40.508Z,5.97
2022-09-25T22:09:10.864Z,5.60
2022-09-25T22:11:38.503Z,5.07
2022-09-25T22:14:06.248Z,4.95
2022-09-25T22:16:38.768Z,4.85
2022-09-25T22:19:17.136Z,5.38
2022-09-25T22:21:45.327Z,4.70
2022-09-25T22:24:12.419Z,4.57
2022-09-25T22:26:41.618Z,3.78
2022-09-25T22:29:08.903Z,4.07
2022-09-25T22:31:38.567Z,3.97
2022-09-25T22:34:08.234Z,4.60
2022-09-25T22:36:36.393Z,4.22
2022-09-25T22:39:05.036Z,3.97
2022-09-25T22:41:32.665Z,3.80
2022-09-25T22:44:00.903Z,4.40
2022-09-25T22:46:28.914Z,4.25
2022-09-25T22:48:56.176Z,4.40
2022-09-25T22:51:25.022Z,3.88
2022-09-25T22:53:53.285Z,3.72
2022-09-25T22:56:24.619Z,3.92
2022-09-25T22:58:53.972Z,4.05
2022-09-25T23:01:30.332Z,3.60
2022-09-25T23:03:59.501Z,3.70
2022-09-25T23:06:27.712Z,4.10
2022-09-25T23:08:56.660Z,3.60
2022-09-25T23:11:24.535Z,4.28
2022-09-25T23:14:11.554Z,4.43
2022-09-25T23:16:38.501Z,4.05
2022-09-25T23:19:05.522Z,4.97
2022-09-25T23:21:32.847Z,4.32
2022-09-25T23:24:02.517Z,4.13
2022-09-25T23:26:30.033Z,4.93
2022-09-25T23:28:58.724Z,3.95
2022-09-25T23:31:26.377Z,4.22
2022-09-25T23:33:53.197Z,4.50
2022-09-25T23:36:22.803Z,3.67
2022-09-25T23:38:51.274Z,4.00
2022-09-25T23:41:19.398Z,3.72
2022-09-25T23:43:47.624Z,4.50
2022-09-25T23:46:16.363Z,3.78
2022-09-25T23:48:44.478Z,4.13
2022-09-25T23:51:12.638Z,4.63
2022-09-25T23:53:40.881Z,4.38
2022-09-25T23:56:17.669Z,4.72
2022-09-25T23:58:44.608Z,4.90
